createdAt,value
2018-05-13T00:00:18.533Z,26.67
2018-05-13T00:02:46.114Z,29.00
2018-05-13T00:05:14.456Z,28.13
2018-05-13T00:07:42.068Z,28.30
2018-05-13T00:10:09.620Z,28.40
2018-05-13T00:12:37.948Z,27.57
2018-05-13T00:15:05.484Z,30.30
2018-05-13T00:17:33.039Z,29.40
2018-05-13T00:20:00.585Z,29.00
2018-05-13T00:22:28.874Z,27.50
2018-05-13T00:24:56.419Z,28.80
2018-05-13T00:27:24.702Z,30.07
2018-05-13T00:29:52.242Z,30.40
2018-05-13T00:32:20.560Z,30.23
2018-05-13T00:34:48.117Z,28.40
2018-05-13T00:37:15.644Z,29.63
2018-05-13T00:39:44.019Z,29.80
2018-05-13T00:42:12.322Z,30.73
2018-05-13T00:44:39.875Z,29.57
2018-05-13T00:47:07.448Z,31.00
2018-05-13T00:49:35.015Z,30.33
2018-05-13T00:52:02.595Z,30.00
2018-05-13T00:54:42.087Z,31.67
2018-05-13T00:57:10.399Z,32.60
2018-05-13T00:59:37.939Z,31.47
2018-05-13T01:02:05.482Z,32.87
2018-05-13T01:04:33.817Z,33.20
2018-05-13T01:07:01.361Z,31.70
2018-05-13T01:09:28.984Z,34.70
2018-05-13T01:11:56.535Z,33.23
2018-05-13T01:14:24.857Z,33.80
2018-05-13T01:16:52.376Z,32.33
2018-05-13T01:19:20.685Z,33.23
2018-05-13T01:21:48.255Z,33.07
2018-05-13T01:24:15.823Z,34.87
2018-05-13T01:26:43.417Z,34.10
2018-05-13T01:29:11.747Z,32.43
2018-05-13T01:31:39.300Z,35.37
2018-05-13T01:34:06.915Z,32.53
2018-05-13T01:36:35.276Z,33.07
2018-05-13T01:39:02.835Z,34.20
2018-05-13T01:41:30.367Z,35.93
2018-05-13T01:43:57.944Z,34.20
2018-05-13T01:46:25.501Z,35.60
2018-05-13T01:48:53.891Z,35.83
2018-05-13T01:51:21.453Z,38.03
2018-05-13T01:53:49.036Z,36.07
2018-05-13T01:56:17.357Z,35.90
2018-05-13T01:58:44.885Z,35.33
2018-05-13T02:01:13.201Z,36.17
2018-05-13T02:03:40.774Z,37.50
2018-05-13T02:06:08.308Z,36.23
2018-05-13T02:08:35.853Z,36.30
2018-05-13T02:11:03.373Z,36.67
2018-05-13T02:13:30.919Z,38.20
2018-05-13T02:15:58.505Z,37.50
2018-05-13T02:18:37.017Z,37.07
2018-05-13T02:21:05.309Z,38.90
2018-05-13T02:23:33.594Z,38.07
2018-05-13T02:26:01.155Z,38.93
2018-05-13T02:28:28.707Z,39.67
2018-05-13T02:30:56.239Z,39.80
2018-05-13T02:33:23.806Z,42.63
2018-05-13T02:35:52.106Z,39.63
2018-05-13T02:38:19.699Z,38.67
2018-05-13T02:40:47.221Z,37.37
2018-05-13T02:43:15.502Z,41.20
2018-05-13T02:45:43.054Z,40.33
2018-05-13T02:48:11.374Z,42.27
2018-05-13T02:50:38.916Z,38.67
2018-05-13T02:53:06.480Z,39.87
2018-05-13T02:55:34.031Z,39.73
2018-05-13T02:58:01.590Z,41.00
2018-05-13T03:00:29.179Z,41.77
2018-05-13T03:02:56.708Z,39.83
2018-05-13T03:05:24.267Z,39.13
2018-05-13T03:07:51.833Z,41.03
2018-05-13T03:10:19.388Z,39.73
2018-05-13T03:12:47.002Z,39.33
2018-05-13T03:15:14.575Z,40.87
2018-05-13T03:17:42.875Z,38.60
2018-05-13T03:20:10.405Z,40.97
2018-05-13T03:22:37.930Z,41.83
2018-05-13T03:25:05.488Z,38.13
2018-05-13T03:27:33.076Z,38.90
2018-05-13T03:30:00.628Z,37.40
2018-05-13T03:32:28.193Z,41.93
2018-05-13T03:34:55.763Z,40.37
2018-05-13T03:37:24.094Z,40.00
2018-05-13T03:39:51.663Z,42.27
2018-05-13T03:42:19.298Z,40.23
2018-05-13T03:44:46.803Z,42.63
2018-05-13T03:47:14.367Z,38.20
2018-05-13T03:49:41.918Z,40.83
2018-05-13T03:52:10.227Z,41.13
2018-05-13T03:54:38.552Z,39.17
2018-05-13T03:57:06.078Z,41.47
2018-05-13T03:59:34.362Z,39.70
2018-05-13T04:02:01.898Z,39.00
2018-05-13T04:04:30.216Z,36.47
2018-05-13T04:06:57.742Z,35.50
2018-05-13T04:09:38.860Z,37.90
2018-05-13T04:12:18.346Z,34.63
2018-05-13T04:14:58.579Z,36.90
2018-05-13T04:17:26.134Z,36.33
2018-05-13T04:19:53.699Z,37.30
2018-05-13T04:22:21.399Z,35.90
2018-05-13T04:24:49.690Z,36.03
2018-05-13T04:27:17.243Z,39.30
2018-05-13T04:29:44.897Z,35.23
2018-05-13T04:32:13.188Z,35.67
2018-05-13T04:34:40.744Z,36.23
2018-05-13T04:37:08.290Z,33.60
2018-05-13T04:39:36.632Z,34.00
2018-05-13T04:42:04.167Z,35.70
2018-05-13T04:44:31.755Z,34.03
2018-05-13T04:46:59.323Z,34.40
2018-05-13T04:49:26.870Z,33.47
2018-05-13T04:51:54.441Z,35.07
2018-05-13T04:54:21.975Z,36.60
2018-05-13T04:56:49.563Z,36.60
2018-05-13T04:59:17.917Z,34.00
2018-05-13T05:01:45.495Z,35.93
2018-05-13T05:04:13.103Z,35.27
2018-05-13T05:06:40.656Z,33.47
2018-05-13T05:09:08.210Z,32.00
2018-05-13T05:11:35.805Z,32.03
2018-05-13T05:14:03.380Z,33.30
2018-05-13T05:16:30.911Z,31.00
2018-05-13T05:18:58.483Z,32.83
2018-05-13T05:21:26.008Z,32.00
2018-05-13T05:23:54.327Z,33.20
2018-05-13T05:26:21.917Z,34.37
2018-05-13T05:28:49.473Z,33.10
2018-05-13T05:31:17.024Z,32.00
2018-05-13T05:33:44.644Z,28.37
2018-05-13T05:36:12.195Z,32.33
2018-05-13T05:38:39.733Z,29.97
2018-05-13T05:41:08.078Z,31.40
2018-05-13T05:43:35.633Z,28.43
2018-05-13T05:46:03.238Z,28.73
2018-05-13T05:48:31.543Z,28.60
2018-05-13T05:50:59.099Z,29.60
2018-05-13T05:53:26.655Z,26.17
2018-05-13T05:55:54.242Z,25.87
2018-05-13T05:58:21.861Z,24.73
2018-05-13T06:00:49.413Z,23.30
2018-05-13T06:03:17.792Z,21.00
2018-05-13T06:05:45.259Z,20.50
2018-05-13T06:08:13.558Z,19.03
2018-05-13T06:10:41.086Z,16.80
2018-05-13T06:13:09.406Z,16.80
2018-05-13T06:15:37.006Z,15.97
2018-05-13T06:18:04.555Z,15.53
2018-05-13T06:20:32.091Z,14.37
2018-05-13T06:22:59.679Z,14.10
2018-05-13T06:25:27.242Z,13.77
2018-05-13T06:27:55.019Z,13.93
2018-05-13T06:30:23.354Z,14.83
2018-05-13T06:32:50.907Z,17.47
2018-05-13T06:35:18.458Z,18.80
2018-05-13T06:37:46.015Z,21.70
2018-05-13T06:40:13.580Z,21.67
2018-05-13T06:42:41.106Z,22.40
2018-05-13T06:45:09.495Z,22.37
2018-05-13T06:47:37.798Z,25.07
2018-05-13T06:50:05.334Z,23.87
2018-05-13T06:52:32.895Z,24.80
2018-05-13T06:55:00.413Z,23.20
2018-05-13T06:57:27.966Z,23.40
2018-05-13T06:59:55.507Z,22.23
2018-05-13T07:02:23.063Z,22.47
2018-05-13T07:04:50.643Z,23.43
2018-05-13T07:07:18.202Z,21.47
2018-05-13T07:09:45.733Z,22.50
2018-05-13T07:12:13.258Z,22.50
2018-05-13T07:14:41.553Z,23.53
2018-05-13T07:17:09.078Z,20.03
2018-05-13T07:19:37.372Z,22.10
2018-05-13T07:22:05.707Z,19.23
2018-05-13T07:24:33.276Z,20.00
2018-05-13T07:27:00.841Z,21.10
2018-05-13T07:29:28.369Z,20.53
2018-05-13T07:31:55.892Z,19.33
2018-05-13T07:34:23.441Z,20.63
2018-05-13T07:36:51.782Z,19.57
2018-05-13T07:39:19.347Z,19.60
2018-05-13T07:41:46.908Z,21.10
2018-05-13T07:44:14.475Z,20.30
2018-05-13T07:46:42.028Z,18.80
2018-05-13T07:49:09.654Z,18.07
2018-05-13T07:51:37.211Z,18.50
2018-05-13T07:54:04.772Z,18.03
2018-05-13T07:56:32.455Z,20.00
2018-05-13T07:59:00.029Z,15.80
2018-05-13T08:01:27.567Z,16.77
2018-05-13T08:03:55.151Z,15.97
2018-05-13T08:06:22.701Z,17.00
2018-05-13T08:08:50.237Z,16.20
2018-05-13T08:11:17.862Z,15.00
2018-05-13T08:13:46.186Z,12.53
2018-05-13T08:16:13.747Z,13.33
2018-05-13T08:18:41.340Z,12.40
2018-05-13T08:21:08.865Z,12.60
2018-05-13T08:23:36.430Z,13.33
2018-05-13T08:26:04.025Z,13.40
2018-05-13T08:28:31.588Z,12.03
2018-05-13T08:30:59.898Z,9.83
2018-05-13T08:33:27.446Z,8.70
2018-05-13T08:35:54.971Z,10.20
2018-05-13T08:38:22.501Z,8.77
2018-05-13T08:40:50.060Z,10.20
2018-05-13T08:43:17.585Z,7.47
2018-05-13T08:45:45.102Z,8.03
2018-05-13T08:51:03.934Z,6.87
2018-05-13T08:53:31.487Z,7.40
2018-05-13T08:55:59.745Z,6.73
2018-05-13T08:58:28.058Z,6.30
2018-05-13T09:00:55.599Z,5.20
2018-05-13T09:03:23.164Z,4.07
2018-05-13T09:05:50.742Z,3.00
2018-05-13T09:08:18.336Z,2.77
2018-05-13T09:10:46.586Z,2.67
2018-05-13T09:16:04.707Z,2.80
2018-05-13T09:18:32.251Z,2.30
2018-05-13T09:21:00.573Z,2.30
2018-05-13T09:23:28.119Z,2.93
2018-05-13T09:25:55.630Z,2.30
2018-05-13T09:28:23.161Z,1.77
2018-05-13T09:30:50.670Z,2.20
2018-05-13T09:33:19.000Z,2.20
2018-05-13T09:35:46.517Z,2.40
2018-05-13T09:38:14.178Z,1.90
2018-05-13T09:40:41.727Z,2.10
2018-05-13T09:43:09.303Z,3.10
2018-05-13T09:45:44.743Z,2.17
2018-05-13T09:48:12.250Z,2.50
2018-05-13T09:50:40.564Z,2.40
2018-05-13T09:53:08.856Z,2.17
2018-05-13T09:55:36.399Z,2.23
2018-05-13T09:58:04.708Z,2.50
2018-05-13T10:00:32.304Z,2.37
2018-05-13T10:03:01.355Z,2.60
2018-05-13T10:05:28.936Z,2.40
2018-05-13T10:07:56.529Z,2.77
2018-05-13T10:10:24.129Z,2.50
2018-05-13T10:12:51.702Z,2.50
2018-05-13T10:15:19.259Z,2.70
2018-05-13T10:17:46.817Z,2.70
2018-05-13T10:20:14.394Z,3.20
2018-05-13T10:22:41.981Z,3.77
2018-05-13T10:25:10.265Z,3.80
2018-05-13T10:27:37.800Z,3.90
2018-05-13T10:30:05.373Z,4.57
2018-05-13T10:32:32.926Z,4.83
2018-05-13T10:35:00.589Z,5.10
2018-05-13T10:37:28.329Z,4.90
2018-05-13T10:39:55.943Z,4.80
2018-05-13T10:42:23.532Z,5.33
2018-05-13T10:44:51.228Z,5.60
2018-05-13T10:47:18.783Z,6.03
2018-05-13T10:49:46.330Z,6.13
2018-05-13T10:52:13.877Z,5.40
2018-05-13T10:54:41.466Z,6.57
2018-05-13T10:57:09.002Z,6.40
2018-05-13T10:59:36.524Z,6.00
2018-05-13T11:02:04.858Z,5.60
2018-05-13T11:04:32.396Z,5.83
2018-05-13T11:07:00.020Z,6.17
2018-05-13T11:09:28.339Z,5.37
2018-05-13T11:11:55.896Z,5.80
2018-05-13T11:14:23.437Z,5.10
2018-05-13T11:16:50.958Z,5.30
2018-05-13T11:19:18.502Z,5.30
2018-05-13T11:21:46.026Z,4.63
2018-05-13T11:24:13.629Z,5.00
2018-05-13T11:26:41.179Z,4.63
2018-05-13T11:29:08.757Z,4.30
2018-05-13T11:31:37.803Z,5.30
2018-05-13T11:34:05.366Z,10.50
2018-05-13T11:36:32.965Z,6.30
2018-05-13T11:39:00.550Z,5.57
2018-05-13T11:41:28.845Z,9.93
2018-05-13T11:43:56.424Z,8.73
2018-05-13T11:46:24.022Z,8.43
2018-05-13T11:48:51.594Z,6.40
2018-05-13T11:51:19.137Z,5.40
2018-05-13T11:53:46.651Z,6.17
2018-05-13T11:56:14.194Z,5.60
2018-05-13T11:58:42.511Z,5.77
2018-05-13T12:01:10.091Z,5.60
2018-05-13T12:03:37.618Z,5.57
2018-05-13T12:06:05.223Z,6.30
2018-05-13T12:08:32.754Z,5.67
2018-05-13T12:11:00.297Z,6.50
2018-05-13T12:13:27.868Z,5.00
2018-05-13T12:15:55.442Z,4.63
2018-05-13T12:18:23.004Z,4.77
2018-05-13T12:20:50.604Z,5.20
2018-05-13T12:23:18.930Z,4.87
2018-05-13T12:25:46.547Z,5.33
2018-05-13T12:28:14.886Z,5.43
2018-05-13T12:30:42.411Z,4.23
2018-05-13T12:33:09.982Z,4.33
2018-05-13T12:35:37.508Z,4.90
2018-05-13T12:38:05.124Z,5.10
2018-05-13T12:40:32.679Z,4.83
2018-05-13T12:43:00.240Z,4.77
2018-05-13T12:45:27.902Z,4.90
2018-05-13T12:47:55.476Z,5.07
2018-05-13T12:50:23.032Z,4.60
2018-05-13T12:52:50.547Z,4.30
2018-05-13T12:55:18.117Z,4.90
2018-05-13T12:57:45.665Z,4.70
2018-05-13T13:00:13.229Z,5.60
2018-05-13T13:02:40.745Z,4.67
2018-05-13T13:05:08.366Z,4.93
2018-05-13T13:07:35.892Z,5.03
2018-05-13T13:10:03.449Z,4.90
2018-05-13T13:12:31.030Z,4.60
2018-05-13T13:14:58.590Z,4.30
2018-05-13T13:17:26.162Z,5.00
2018-05-13T13:19:53.719Z,4.17
2018-05-13T13:22:21.214Z,4.53
2018-05-13T13:24:48.800Z,4.50
2018-05-13T13:27:16.412Z,4.10
2018-05-13T13:29:43.968Z,4.87
2018-05-13T13:32:11.523Z,6.00
2018-05-13T13:34:39.074Z,5.43
2018-05-13T13:37:06.626Z,4.40
2018-05-13T13:39:34.163Z,3.80
2018-05-13T13:42:01.737Z,3.50
2018-05-13T13:44:29.297Z,3.90
2018-05-13T13:46:56.825Z,3.43
2018-05-13T13:49:25.167Z,3.97
2018-05-13T13:54:43.216Z,3.70
2018-05-13T13:57:10.771Z,3.13
2018-05-13T13:59:38.314Z,3.50
2018-05-13T14:02:05.855Z,3.87
2018-05-13T14:04:34.173Z,3.57
2018-05-13T14:07:01.773Z,3.50
2018-05-13T14:09:29.338Z,3.67
2018-05-13T14:14:47.438Z,3.30
2018-05-13T14:17:15.019Z,2.60
2018-05-13T14:19:42.570Z,4.07
2018-05-13T14:22:10.094Z,3.43
2018-05-13T14:24:37.608Z,3.27
2018-05-13T14:27:05.228Z,3.33
2018-05-13T14:29:32.702Z,3.37
2018-05-13T14:32:00.307Z,3.20
2018-05-13T14:34:27.830Z,3.50
2018-05-13T14:36:55.347Z,3.23
2018-05-13T14:39:23.678Z,3.97
2018-05-13T14:41:51.261Z,3.13
2018-05-13T14:44:18.806Z,4.00
2018-05-13T14:46:46.377Z,3.20
2018-05-13T14:49:14.676Z,2.97
2018-05-13T14:51:43.018Z,3.40
2018-05-13T14:54:10.567Z,3.20
2018-05-13T14:56:38.111Z,3.00
2018-05-13T14:59:05.626Z,3.37
2018-05-13T15:01:33.983Z,3.43
2018-05-13T15:04:02.309Z,3.33
2018-05-13T15:06:29.857Z,2.87
2018-05-13T15:08:57.427Z,2.73
2018-05-13T15:11:24.957Z,2.97
2018-05-13T15:13:53.310Z,3.63
2018-05-13T15:16:20.876Z,4.00
2018-05-13T15:18:48.424Z,3.47
2018-05-13T15:21:15.975Z,3.03
2018-05-13T15:23:43.555Z,3.23
2018-05-13T15:26:11.114Z,3.20
2018-05-13T15:28:38.641Z,2.73
2018-05-13T15:31:06.189Z,3.27
2018-05-13T15:33:33.759Z,2.90
2018-05-13T15:36:01.326Z,3.20
2018-05-13T15:38:28.850Z,4.17
2018-05-13T15:40:56.412Z,2.83
2018-05-13T15:43:24.029Z,3.40
2018-05-13T15:45:52.283Z,3.87
2018-05-13T15:48:19.838Z,3.00
2018-05-13T15:50:47.412Z,2.70
2018-05-13T15:53:14.963Z,2.87
2018-05-13T15:55:42.536Z,3.13
2018-05-13T15:58:10.088Z,2.53
2018-05-13T16:00:37.649Z,2.53
2018-05-13T16:03:05.227Z,2.83
2018-05-13T16:05:32.785Z,2.97
2018-05-13T16:08:00.295Z,2.60
2018-05-13T16:10:27.810Z,2.80
2018-05-13T16:12:55.385Z,2.70
2018-05-13T16:15:23.694Z,3.83
2018-05-13T16:17:51.231Z,2.40
2018-05-13T16:20:19.601Z,2.90
2018-05-13T16:22:47.923Z,3.17
2018-05-13T16:25:15.463Z,3.40
2018-05-13T16:27:42.985Z,4.50
2018-05-13T16:30:10.569Z,3.33
2018-05-13T16:32:38.918Z,3.00
2018-05-13T16:35:06.471Z,3.00
2018-05-13T16:37:33.985Z,3.13
2018-05-13T16:40:01.555Z,3.00
2018-05-13T16:42:29.102Z,3.53
2018-05-13T16:44:56.647Z,3.00
2018-05-13T16:47:24.198Z,4.17
2018-05-13T16:49:51.764Z,4.00
2018-05-13T16:52:20.089Z,3.30
2018-05-13T16:54:47.635Z,3.23
2018-05-13T16:57:15.206Z,3.80
2018-05-13T16:59:42.727Z,3.80
2018-05-13T17:02:10.289Z,4.13
2018-05-13T17:04:37.834Z,3.57
2018-05-13T17:07:05.410Z,3.00
2018-05-13T17:09:32.988Z,5.97
2018-05-13T17:12:01.311Z,4.87
2018-05-13T17:14:28.874Z,3.73
2018-05-13T17:16:56.398Z,4.00
2018-05-13T17:19:23.970Z,3.87
2018-05-13T17:21:51.547Z,5.53
2018-05-13T17:24:19.092Z,3.30
2018-05-13T17:26:46.663Z,3.80
2018-05-13T17:29:14.212Z,2.80
2018-05-13T17:31:41.746Z,3.87
2018-05-13T17:34:10.075Z,3.57
2018-05-13T17:36:37.635Z,3.60
2018-05-13T17:39:05.205Z,4.03
2018-05-13T17:41:32.725Z,3.17
2018-05-13T17:44:00.296Z,3.93
2018-05-13T17:46:27.813Z,3.43
2018-05-13T17:48:56.183Z,3.30
2018-05-13T17:51:23.715Z,3.33
2018-05-13T17:53:51.318Z,3.60
2018-05-13T17:56:18.908Z,4.00
2018-05-13T17:58:46.471Z,3.70
2018-05-13T18:01:14.023Z,3.90
2018-05-13T18:03:41.562Z,3.20
2018-05-13T18:06:09.139Z,4.33
2018-05-13T18:08:36.712Z,3.93
2018-05-13T18:11:04.253Z,4.10
2018-05-13T18:13:31.765Z,3.70
2018-05-13T18:15:59.392Z,3.43
2018-05-13T18:18:26.940Z,4.30
2018-05-13T18:20:54.558Z,3.90
2018-05-13T18:23:22.850Z,3.70
2018-05-13T18:25:51.197Z,3.53
2018-05-13T18:28:18.775Z,3.83
2018-05-13T18:30:47.058Z,4.93
2018-05-13T18:33:15.371Z,3.60
2018-05-13T18:35:42.932Z,4.23
2018-05-13T18:38:10.499Z,3.50
2018-05-13T18:40:38.031Z,4.37
2018-05-13T18:43:06.343Z,4.17
2018-05-13T18:45:33.898Z,3.37
2018-05-13T18:48:01.410Z,4.43
2018-05-13T18:50:29.718Z,4.57
2018-05-13T18:52:57.230Z,3.97
2018-05-13T18:55:24.796Z,3.93
2018-05-13T18:57:52.344Z,4.70
2018-05-13T19:00:19.881Z,4.00
2018-05-13T19:02:47.415Z,4.47
2018-05-13T19:05:14.968Z,4.40
2018-05-13T19:07:42.543Z,4.40
2018-05-13T19:10:10.066Z,4.10
2018-05-13T19:12:38.414Z,4.60
2018-05-13T19:15:05.935Z,4.00
2018-05-13T19:17:33.486Z,4.77
2018-05-13T19:20:01.014Z,4.17
2018-05-13T19:22:29.351Z,4.03
2018-05-13T19:24:56.907Z,4.47
2018-05-13T19:27:24.476Z,4.20
2018-05-13T19:29:52.038Z,4.23
2018-05-13T19:32:19.619Z,4.17
2018-05-13T19:34:47.171Z,4.27
2018-05-13T19:37:14.845Z,4.77
2018-05-13T19:39:42.394Z,3.80
2018-05-13T19:42:09.944Z,3.87
2018-05-13T19:44:37.493Z,3.77
2018-05-13T19:47:05.024Z,4.63
2018-05-13T19:49:33.330Z,5.20
2018-05-13T19:52:00.851Z,5.30
2018-05-13T19:54:29.192Z,5.60
2018-05-13T19:56:56.759Z,4.30
2018-05-13T19:59:24.339Z,4.60
2018-05-13T20:01:52.684Z,4.30
2018-05-13T20:04:20.241Z,4.60
2018-05-13T20:06:47.823Z,4.30
2018-05-13T20:09:15.435Z,4.87
2018-05-13T20:11:42.956Z,4.13
2018-05-13T20:14:10.481Z,4.30
2018-05-13T20:16:38.003Z,4.60
2018-05-13T20:19:06.319Z,4.20
2018-05-13T20:21:33.826Z,4.30
2018-05-13T20:24:02.150Z,4.13
2018-05-13T20:26:29.713Z,4.73
2018-05-13T20:28:57.278Z,4.70
2018-05-13T20:31:24.803Z,4.20
2018-05-13T20:33:52.371Z,4.87
2018-05-13T20:36:19.926Z,4.10
2018-05-13T20:38:47.478Z,4.57
2018-05-13T20:41:15.789Z,4.00
2018-05-13T20:43:43.330Z,4.30
2018-05-13T20:46:10.874Z,3.60
2018-05-13T20:48:38.417Z,4.83
2018-05-13T20:51:06.734Z,4.20
2018-05-13T20:53:34.277Z,4.43
2018-05-13T20:56:01.833Z,4.30
2018-05-13T20:58:29.443Z,4.00
2018-05-13T21:00:57.021Z,4.57
2018-05-13T21:03:25.338Z,4.40
2018-05-13T21:05:52.911Z,5.30
2018-05-13T21:08:20.467Z,4.93
2018-05-13T21:10:48.058Z,4.83
2018-05-13T21:13:15.575Z,4.80
2018-05-13T21:15:43.134Z,5.57
2018-05-13T21:18:11.422Z,4.67
2018-05-13T21:20:38.963Z,4.40
2018-05-13T21:23:07.279Z,5.07
2018-05-13T21:25:34.855Z,4.50
2018-05-13T21:28:02.427Z,4.10
2018-05-13T21:30:29.991Z,4.10
2018-05-13T21:32:57.635Z,4.50
2018-05-13T21:35:25.259Z,4.47
2018-05-13T21:37:52.855Z,4.03
2018-05-13T21:40:20.433Z,4.00
2018-05-13T21:42:47.944Z,4.03
2018-05-13T21:45:16.279Z,4.50
2018-05-13T21:47:43.906Z,4.70
2018-05-13T21:50:11.472Z,4.80
2018-05-13T21:52:39.023Z,3.83
2018-05-13T21:55:06.571Z,4.83
2018-05-13T21:57:34.140Z,4.60
2018-05-13T22:00:01.671Z,4.40
2018-05-13T22:02:30.007Z,3.83
2018-05-13T22:04:59.494Z,4.27
2018-05-13T22:07:27.076Z,4.37
2018-05-13T22:09:54.626Z,5.07
2018-05-13T22:12:22.182Z,5.17
2018-05-13T22:14:49.701Z,4.03
2018-05-13T22:17:17.277Z,4.50
2018-05-13T22:19:44.797Z,4.50
2018-05-13T22:22:12.507Z,4.37
2018-05-13T22:24:40.031Z,4.90
2018-05-13T22:27:08.313Z,3.87
2018-05-13T22:29:36.615Z,5.10
2018-05-13T22:32:04.172Z,5.10
2018-05-13T22:34:31.714Z,4.40
2018-05-13T22:36:59.260Z,4.30
2018-05-13T22:39:27.600Z,4.13
2018-05-13T22:41:55.140Z,4.30
2018-05-13T22:44:22.711Z,4.90
2018-05-13T22:46:50.225Z,4.40
2018-05-13T22:49:18.528Z,4.27
2018-05-13T22:51:46.043Z,4.20
2018-05-13T22:54:13.558Z,4.90
2018-05-13T22:56:41.145Z,4.73
2018-05-13T22:59:08.677Z,4.50
2018-05-13T23:01:36.223Z,5.60
2018-05-13T23:04:03.732Z,4.87
2018-05-13T23:06:31.292Z,4.87
2018-05-13T23:08:58.867Z,4.80
2018-05-13T23:11:26.424Z,4.47
2018-05-13T23:13:53.939Z,5.37
2018-05-13T23:16:21.506Z,4.80
2018-05-13T23:18:49.039Z,5.03
2018-05-13T23:21:17.348Z,5.43
2018-05-13T23:23:44.902Z,4.40
2018-05-13T23:26:12.445Z,5.10
2018-05-13T23:28:40.763Z,4.63
2018-05-13T23:31:08.365Z,4.70
2018-05-13T23:33:36.684Z,5.40
2018-05-13T23:36:04.199Z,4.40
2018-05-13T23:38:32.547Z,5.30
2018-05-13T23:41:00.103Z,4.80
2018-05-13T23:43:27.695Z,5.40
2018-05-13T23:45:55.263Z,4.87
2018-05-13T23:48:23.573Z,5.70
2018-05-13T23:50:51.115Z,5.63
2018-05-13T23:53:18.724Z,5.87
2018-05-13T23:55:46.299Z,6.00
2018-05-13T23:58:13.840Z,5.40
